Upper Hoh, Washington
Current Conditions -  °F | °C
As of 11:53 PM on Thursday 18 Dec 2014 (Local Time) from KUIL Reporting Station
Scattered Clouds Scattered Clouds  
Wind Chill: 45°   Ceiling: Unl
Heat Index: 49°   Visibility: 8mi
Dew Point: 45°   Wind: 9mph
Humidity: 86%   Direction: 200°SSW
Pressure: 29.7"   Gusts: 23mph
Location:  47.9519°N, 124.29°W
Report Text: KUIL 190753Z AUTO 20008G20KT 8SM FEW023 FEW031 SCT042 09/07 A2970 RMK AO2 SLP056 T00940072 401060067
Loading
Personal Weather Stations






























Interactive Weather Map New forecast layout! Learn more

10-Day Weather Forecast

Advertisements
Track Severe Weather on mobile